createdAt,value
2022-10-12T00:00:21.570Z,15.98
2022-10-12T00:03:08.587Z,15.07
2022-10-12T00:05:35.497Z,15.05
2022-10-12T00:08:02.600Z,15.77
2022-10-12T00:10:29.510Z,14.45
2022-10-12T00:12:56.789Z,14.88
2022-10-12T00:15:24.085Z,16.83
2022-10-12T00:17:51.054Z,15.95
2022-10-12T00:20:17.960Z,15.98
2022-10-12T00:22:45.065Z,14.98
2022-10-12T00:25:11.881Z,15.55
2022-10-12T00:27:39.119Z,16.02
2022-10-12T00:30:07.075Z,16.80
2022-10-12T00:32:33.966Z,14.55
2022-10-12T00:35:00.967Z,15.75
2022-10-12T00:37:28.163Z,16.27
2022-10-12T00:39:55.266Z,15.18
2022-10-12T00:42:22.280Z,16.80
2022-10-12T00:44:50.869Z,15.82
2022-10-12T00:47:34.118Z,17.23
2022-10-12T00:50:04.351Z,15.82
2022-10-12T00:52:59.338Z,16.52
2022-10-12T00:55:30.304Z,17.15
2022-10-12T00:57:58.146Z,18.00
2022-10-12T01:00:26.157Z,17.40
2022-10-12T01:02:54.928Z,18.52
2022-10-12T01:05:23.096Z,17.17
2022-10-12T01:07:50.478Z,17.85
2022-10-12T01:10:18.169Z,16.65
2022-10-12T01:12:49.424Z,17.30
2022-10-12T01:15:16.879Z,16.75
2022-10-12T01:18:02.745Z,17.67
2022-10-12T01:20:41.762Z,16.88
2022-10-12T01:23:18.890Z,17.05
2022-10-12T01:26:07.582Z,17.00
2022-10-12T01:28:45.895Z,16.27
2022-10-12T01:31:44.236Z,16.02
2022-10-12T01:34:37.405Z,15.60
2022-10-12T01:37:21.904Z,15.30
2022-10-12T01:39:59.061Z,14.95
2022-10-12T01:42:33.024Z,14.95
2022-10-12T01:45:09.417Z,15.95
2022-10-12T01:47:39.987Z,15.18
2022-10-12T01:50:11.105Z,15.40
2022-10-12T01:53:07.401Z,14.70
2022-10-12T01:55:42.488Z,15.98
2022-10-12T01:58:15.667Z,16.02
2022-10-12T02:01:09.187Z,16.02
2022-10-12T02:03:45.396Z,15.45
2022-10-12T02:06:16.886Z,14.38
2022-10-12T02:09:02.643Z,15.88
2022-10-12T02:11:34.005Z,14.85
2022-10-12T02:14:16.946Z,14.10
2022-10-12T02:16:49.842Z,14.18
2022-10-12T02:19:22.050Z,14.70
2022-10-12T02:21:50.678Z,15.60
2022-10-12T02:24:18.945Z,14.80
2022-10-12T02:26:49.912Z,14.15
2022-10-12T02:29:25.990Z,15.20
2022-10-12T02:32:00.240Z,17.05
2022-10-12T02:34:36.360Z,16.85
2022-10-12T02:37:12.103Z,18.13
2022-10-12T02:39:49.794Z,16.25
2022-10-12T02:42:27.209Z,17.63
2022-10-12T02:44:58.433Z,16.65
2022-10-12T02:47:28.841Z,17.88
2022-10-12T02:49:56.694Z,15.88
2022-10-12T02:52:24.707Z,16.85
2022-10-12T02:54:51.792Z,16.52
2022-10-12T02:57:18.693Z,16.33
2022-10-12T02:59:45.716Z,17.05
2022-10-12T03:02:12.875Z,16.45
2022-10-12T03:04:39.748Z,16.77
2022-10-12T03:07:06.609Z,16.35
2022-10-12T03:09:33.661Z,16.27
2022-10-12T03:12:00.667Z,16.10
2022-10-12T03:14:27.701Z,16.23
2022-10-12T03:16:54.922Z,16.70
2022-10-12T03:19:21.823Z,15.15
2022-10-12T03:21:48.881Z,15.13
2022-10-12T03:24:16.024Z,14.60
2022-10-12T03:26:42.908Z,15.68
2022-10-12T03:29:09.870Z,15.40
2022-10-12T03:31:36.967Z,14.90
2022-10-12T03:34:04.151Z,14.13
2022-10-12T03:36:31.245Z,15.02
2022-10-12T03:38:58.536Z,14.60
2022-10-12T03:41:25.397Z,13.13
2022-10-12T03:43:52.512Z,13.80
2022-10-12T03:46:19.349Z,15.30
2022-10-12T03:48:47.148Z,13.93
2022-10-12T03:51:14.071Z,13.73
2022-10-12T03:53:45.404Z,14.93
2022-10-12T03:56:12.964Z,13.38
2022-10-12T03:58:40.159Z,13.45
2022-10-12T04:01:07.183Z,13.63
2022-10-12T04:03:34.340Z,14.63
2022-10-12T04:06:01.210Z,14.98
2022-10-12T04:08:28.595Z,14.05
2022-10-12T04:10:56.157Z,14.57
2022-10-12T04:13:23.447Z,13.32
2022-10-12T04:15:50.936Z,13.48
2022-10-12T04:18:18.309Z,13.30
2022-10-12T04:20:48.589Z,14.80
2022-10-12T04:23:15.769Z,12.80
2022-10-12T04:25:42.964Z,13.75
2022-10-12T04:28:10.044Z,14.63
2022-10-12T04:30:36.940Z,13.45
2022-10-12T04:33:04.697Z,14.27
2022-10-12T04:35:32.095Z,13.45
2022-10-12T04:37:59.630Z,14.13
2022-10-12T04:40:26.521Z,14.30
2022-10-12T04:42:53.657Z,13.93
2022-10-12T04:45:20.781Z,13.48
2022-10-12T04:47:48.320Z,14.52
2022-10-12T04:50:15.418Z,15.18
2022-10-12T04:52:42.754Z,12.55
2022-10-12T04:55:09.904Z,13.13
2022-10-12T04:57:37.365Z,14.98
2022-10-12T05:00:06.130Z,13.93
2022-10-12T05:02:33.584Z,13.88
2022-10-12T05:05:00.867Z,14.13
2022-10-12T05:07:28.346Z,14.10
2022-10-12T05:09:55.569Z,14.25
2022-10-12T05:12:23.061Z,14.40
2022-10-12T05:14:50.171Z,13.50
2022-10-12T05:17:17.134Z,14.30
2022-10-12T05:19:44.279Z,15.38
2022-10-12T05:22:11.375Z,15.65
2022-10-12T05:24:38.584Z,15.43
2022-10-12T05:27:05.749Z,16.20
2022-10-12T05:29:32.980Z,16.85
2022-10-12T05:31:59.958Z,17.67
2022-10-12T05:34:27.113Z,17.63
2022-10-12T05:36:53.996Z,18.15
2022-10-12T05:39:21.254Z,17.38
2022-10-12T05:41:48.122Z,17.85
2022-10-12T05:44:15.160Z,17.13
2022-10-12T05:46:42.471Z,18.02
2022-10-12T05:49:09.581Z,16.25
2022-10-12T05:51:38.765Z,15.82
2022-10-12T05:54:05.920Z,13.75
2022-10-12T05:56:33.050Z,15.68
2022-10-12T05:59:00.205Z,15.38
2022-10-12T06:01:27.250Z,15.45
2022-10-12T06:03:55.100Z,13.60
2022-10-12T06:06:23.016Z,13.43
2022-10-12T06:08:50.158Z,14.02
2022-10-12T06:11:17.137Z,14.48
2022-10-12T06:13:44.378Z,14.48
2022-10-12T06:16:11.461Z,14.50
2022-10-12T06:18:39.058Z,14.95
2022-10-12T06:21:28.892Z,14.27
2022-10-12T06:23:53.802Z,15.60
2022-10-12T06:26:24.990Z,14.90
2022-10-12T06:28:52.413Z,14.38
2022-10-12T06:31:19.417Z,15.02
2022-10-12T06:33:46.497Z,14.75
2022-10-12T06:36:13.606Z,14.73
2022-10-12T06:38:40.693Z,15.40
2022-10-12T06:41:07.949Z,14.38
2022-10-12T06:43:35.151Z,15.38
2022-10-12T06:46:02.889Z,14.57
2022-10-12T06:48:30.679Z,14.48
2022-10-12T06:50:58.254Z,14.18
2022-10-12T06:53:28.765Z,15.45
2022-10-12T06:55:55.780Z,14.98
2022-10-12T06:58:23.202Z,15.43
2022-10-12T07:00:50.129Z,15.45
2022-10-12T07:03:17.769Z,14.95
2022-10-12T07:05:44.832Z,14.65
2022-10-12T07:08:12.007Z,15.35
2022-10-12T07:10:39.100Z,15.52
2022-10-12T07:13:06.377Z,15.45
2022-10-12T07:15:33.693Z,15.18
2022-10-12T07:18:00.870Z,14.25
2022-10-12T07:20:27.800Z,14.18
2022-10-12T07:22:54.944Z,14.00
2022-10-12T07:25:22.409Z,15.05
2022-10-12T07:27:49.683Z,14.45
2022-10-12T07:30:16.838Z,13.75
2022-10-12T07:32:46.127Z,12.35
2022-10-12T07:35:13.165Z,13.65
2022-10-12T07:37:40.863Z,14.43
2022-10-12T07:40:08.636Z,13.57
2022-10-12T07:42:35.565Z,14.90
2022-10-12T07:45:02.695Z,13.88
2022-10-12T07:47:29.734Z,13.55
2022-10-12T07:49:57.318Z,13.18
2022-10-12T07:52:24.277Z,13.13
2022-10-12T07:54:51.374Z,12.00
2022-10-12T07:57:18.601Z,12.43
2022-10-12T07:59:46.711Z,12.90
2022-10-12T08:02:13.951Z,12.23
2022-10-12T08:04:41.399Z,12.40
2022-10-12T08:07:08.372Z,12.05
2022-10-12T08:09:36.321Z,12.43
2022-10-12T08:12:04.238Z,13.20
2022-10-12T08:14:31.624Z,12.68
2022-10-12T08:16:58.665Z,13.40
2022-10-12T08:19:25.958Z,13.48
2022-10-12T08:21:52.987Z,13.52
2022-10-12T08:24:20.268Z,14.52
2022-10-12T08:26:47.172Z,13.82
2022-10-12T08:29:14.483Z,14.30
2022-10-12T08:31:41.494Z,12.25
2022-10-12T08:34:08.693Z,14.27
2022-10-12T08:36:35.661Z,14.02
2022-10-12T08:39:06.770Z,14.45
2022-10-12T08:41:45.715Z,14.05
2022-10-12T08:44:20.091Z,11.90
2022-10-12T08:46:47.837Z,10.70
2022-10-12T08:49:18.769Z,10.18
2022-10-12T08:51:53.789Z,9.63
2022-10-12T08:54:23.412Z,8.38
2022-10-12T08:56:54.300Z,7.53
2022-10-12T08:59:22.828Z,6.43
2022-10-12T09:02:00.548Z,6.03
2022-10-12T09:04:42.925Z,8.75
2022-10-12T09:07:24.620Z,4.82
2022-10-12T09:09:51.894Z,4.70
2022-10-12T09:12:31.456Z,6.28
2022-10-12T09:15:04.136Z,4.50
2022-10-12T09:17:44.016Z,4.00
2022-10-12T09:20:32.295Z,4.03
2022-10-12T09:23:12.344Z,3.25
2022-10-12T09:25:40.318Z,3.83
2022-10-12T09:28:37.765Z,3.53
2022-10-12T09:31:10.918Z,3.30
2022-10-12T09:33:48.118Z,3.30
2022-10-12T09:36:20.509Z,4.07
2022-10-12T09:38:49.753Z,2.90
2022-10-12T09:41:22.379Z,2.75
2022-10-12T09:43:55.486Z,2.70
2022-10-12T09:46:40.153Z,3.10
2022-10-12T09:49:07.330Z,2.15
2022-10-12T09:51:35.592Z,3.20
2022-10-12T09:54:04.527Z,1.70
2022-10-12T09:56:44.586Z,2.40
2022-10-12T09:59:33.158Z,2.75
2022-10-12T10:02:20.198Z,2.50
2022-10-12T10:04:49.240Z,2.42
2022-10-12T10:07:31.415Z,2.63
2022-10-12T10:10:29.761Z,3.50
2022-10-12T10:13:03.102Z,3.03
2022-10-12T10:15:35.808Z,2.58
2022-10-12T10:18:08.014Z,2.97
2022-10-12T10:20:59.018Z,2.70
2022-10-12T10:23:32.758Z,2.80
2022-10-12T10:26:08.092Z,2.72
2022-10-12T10:28:37.864Z,2.70
2022-10-12T10:31:17.163Z,2.80
2022-10-12T10:33:44.502Z,2.80
2022-10-12T10:36:18.596Z,4.45
2022-10-12T10:39:01.100Z,2.58
2022-10-12T10:41:36.860Z,2.70
2022-10-12T10:44:05.599Z,2.33
2022-10-12T10:46:36.482Z,2.47
2022-10-12T10:49:07.538Z,2.40
2022-10-12T10:51:46.913Z,3.08
2022-10-12T10:54:41.145Z,2.15
2022-10-12T10:57:19.063Z,1.98
2022-10-12T11:00:02.177Z,2.55
2022-10-12T11:03:01.268Z,2.55
2022-10-12T11:05:48.453Z,2.05
2022-10-12T11:08:43.735Z,2.38
2022-10-12T11:11:23.642Z,2.20
2022-10-12T11:14:00.705Z,2.13
2022-10-12T11:16:34.475Z,2.88
2022-10-12T11:19:21.139Z,2.67
2022-10-12T11:21:55.651Z,3.10
2022-10-12T11:25:03.165Z,2.25
2022-10-12T11:27:34.694Z,2.58
2022-10-12T11:30:10.160Z,2.40
2022-10-12T11:32:51.361Z,2.50
2022-10-12T11:35:32.513Z,2.58
2022-10-12T11:38:05.273Z,3.40
2022-10-12T11:43:36.143Z,2.80
2022-10-12T11:46:08.206Z,2.50
2022-10-12T11:48:45.007Z,3.33
2022-10-12T11:51:12.493Z,3.90
2022-10-12T11:53:56.759Z,3.05
2022-10-12T11:56:31.816Z,3.75
2022-10-12T11:59:05.567Z,2.65
2022-10-12T12:02:13.989Z,2.83
2022-10-12T12:04:46.192Z,2.35
2022-10-12T12:07:43.514Z,2.90
2022-10-12T12:10:31.231Z,2.13
2022-10-12T12:13:13.402Z,2.60
2022-10-12T12:15:43.305Z,2.60
2022-10-12T12:18:17.437Z,2.33
2022-10-12T12:20:44.363Z,2.55
2022-10-12T12:23:35.907Z,2.50
2022-10-12T12:26:28.635Z,4.00
2022-10-12T12:29:20.306Z,1.95
2022-10-12T12:31:56.346Z,2.00
2022-10-12T12:34:23.735Z,1.95
2022-10-12T12:36:52.190Z,1.92
2022-10-12T12:39:30.704Z,1.70
2022-10-12T12:42:04.282Z,1.77
2022-10-12T12:44:37.377Z,2.10
2022-10-12T12:47:20.531Z,3.90
2022-10-12T12:50:01.216Z,2.05
2022-10-12T12:52:39.892Z,2.53
2022-10-12T12:55:16.437Z,2.80
2022-10-12T12:58:13.976Z,3.05
2022-10-12T13:01:05.276Z,1.90
2022-10-12T13:03:56.665Z,2.50
2022-10-12T13:06:39.111Z,1.73
2022-10-12T13:09:29.596Z,2.00
2022-10-12T13:12:41.705Z,2.22
2022-10-12T13:15:36.596Z,2.00
2022-10-12T13:18:45.294Z,1.95
2022-10-12T13:21:25.174Z,1.50
2022-10-12T13:24:18.609Z,1.27
2022-10-12T13:26:48.778Z,2.03
2022-10-12T13:29:39.743Z,1.90
2022-10-12T13:32:18.676Z,1.60
2022-10-12T13:34:49.441Z,2.72
2022-10-12T13:37:17.015Z,1.70
2022-10-12T13:39:47.099Z,1.80
2022-10-12T13:42:21.261Z,1.95
2022-10-12T13:44:48.815Z,2.15
2022-10-12T13:47:26.809Z,2.20
2022-10-12T13:49:54.994Z,2.13
2022-10-12T13:52:32.604Z,2.05
2022-10-12T13:55:01.740Z,2.90
2022-10-12T13:57:47.608Z,1.85
2022-10-12T14:00:26.298Z,1.73
2022-10-12T14:03:02.222Z,1.80
2022-10-12T14:05:31.594Z,2.38
2022-10-12T14:08:07.058Z,1.55
2022-10-12T14:10:37.245Z,2.45
2022-10-12T14:13:05.782Z,2.72
2022-10-12T14:15:38.822Z,1.77
2022-10-12T14:18:32.948Z,1.75
2022-10-12T14:21:15.420Z,1.90
2022-10-12T14:23:48.898Z,1.90
2022-10-12T14:26:32.470Z,1.88
2022-10-12T14:29:00.450Z,1.73
2022-10-12T14:31:48.802Z,1.42
2022-10-12T14:34:28.138Z,1.52
2022-10-12T14:37:10.379Z,1.83
2022-10-12T14:39:38.499Z,1.33
2022-10-12T14:42:28.472Z,1.75
2022-10-12T14:44:55.938Z,1.90
2022-10-12T14:47:26.980Z,1.90
2022-10-12T14:52:45.111Z,1.77
2022-10-12T14:55:16.634Z,2.00
2022-10-12T14:57:44.742Z,2.25
2022-10-12T15:00:22.747Z,2.38
2022-10-12T15:02:50.765Z,2.17
2022-10-12T15:05:21.466Z,2.75
2022-10-12T15:07:49.749Z,2.47
2022-10-12T15:10:19.778Z,2.45
2022-10-12T15:12:47.029Z,2.03
2022-10-12T15:15:46.836Z,2.13
2022-10-12T15:18:15.039Z,2.70
2022-10-12T15:20:46.750Z,2.00
2022-10-12T15:23:16.501Z,2.75
2022-10-12T15:25:56.399Z,2.63
2022-10-12T15:28:23.895Z,2.35
2022-10-12T15:31:15.783Z,2.63
2022-10-12T15:33:40.310Z,2.30
2022-10-12T15:36:07.666Z,2.13
2022-10-12T15:38:35.432Z,2.45
2022-10-12T15:41:03.051Z,2.40
2022-10-12T15:43:31.624Z,2.70
2022-10-12T15:45:59.501Z,2.50
2022-10-12T15:48:28.491Z,2.95
2022-10-12T15:50:55.736Z,3.35
2022-10-12T15:53:24.931Z,2.88
2022-10-12T15:55:56.055Z,3.30
2022-10-12T15:58:24.877Z,3.88
2022-10-12T16:00:52.675Z,3.63
2022-10-12T16:03:25.605Z,3.10
2022-10-12T16:05:53.598Z,3.28
2022-10-12T16:08:21.114Z,3.22
2022-10-12T16:10:48.563Z,3.30
2022-10-12T16:13:16.640Z,2.92
2022-10-12T16:15:44.349Z,2.92
2022-10-12T16:18:12.342Z,3.58
2022-10-12T16:20:41.445Z,3.67
2022-10-12T16:23:14.264Z,2.85
2022-10-12T16:25:41.466Z,2.60
2022-10-12T16:28:10.524Z,2.72
2022-10-12T16:30:40.059Z,2.55
2022-10-12T16:33:07.366Z,2.78
2022-10-12T16:35:35.397Z,3.03
2022-10-12T16:38:02.652Z,3.45
2022-10-12T16:40:29.811Z,2.95
2022-10-12T16:42:57.509Z,3.25
2022-10-12T16:45:25.692Z,3.30
2022-10-12T16:47:54.039Z,2.88
2022-10-12T16:50:23.624Z,3.08
2022-10-12T16:52:51.699Z,4.60
2022-10-12T16:55:19.720Z,3.53
2022-10-12T16:57:47.047Z,3.40
2022-10-12T17:00:17.239Z,3.22
2022-10-12T17:02:44.390Z,3.88
2022-10-12T17:05:11.650Z,3.38
2022-10-12T17:07:38.622Z,3.50
2022-10-12T17:10:06.392Z,4.07
2022-10-12T17:12:34.183Z,4.60
2022-10-12T17:15:01.417Z,4.03
2022-10-12T17:17:28.685Z,3.40
2022-10-12T17:19:56.428Z,4.68
2022-10-12T17:22:23.648Z,3.72
2022-10-12T17:24:50.862Z,3.78
2022-10-12T17:27:18.352Z,4.47
2022-10-12T17:29:46.369Z,3.60
2022-10-12T17:32:14.005Z,5.78
2022-10-12T17:34:44.940Z,4.85
2022-10-12T17:37:14.032Z,4.88
2022-10-12T17:39:44.769Z,4.40
2022-10-12T17:42:12.509Z,4.50
2022-10-12T17:44:40.496Z,4.20
2022-10-12T17:47:07.711Z,3.95
2022-10-12T17:49:35.307Z,5.55
2022-10-12T17:52:02.337Z,5.70
2022-10-12T17:54:29.750Z,4.10
2022-10-12T17:56:57.378Z,5.13
2022-10-12T17:59:25.184Z,4.20
2022-10-12T18:01:52.970Z,3.75
2022-10-12T18:04:20.544Z,4.13
2022-10-12T18:06:48.137Z,3.67
2022-10-12T18:09:18.360Z,4.45
2022-10-12T18:11:45.374Z,4.72
2022-10-12T18:14:13.379Z,4.30
2022-10-12T18:16:41.184Z,4.57
2022-10-12T18:19:11.445Z,4.65
2022-10-12T18:21:39.111Z,4.30
2022-10-12T18:24:12.288Z,4.40
2022-10-12T18:26:47.115Z,5.22
2022-10-12T18:29:18.281Z,3.95
2022-10-12T18:31:45.482Z,4.10
2022-10-12T18:34:12.494Z,4.43
2022-10-12T18:36:41.378Z,4.70
2022-10-12T18:39:08.747Z,4.50
2022-10-12T18:41:36.620Z,4.18
2022-10-12T18:44:03.780Z,4.53
2022-10-12T18:46:34.116Z,4.55
2022-10-12T18:49:05.596Z,5.75
2022-10-12T18:51:36.359Z,5.63
2022-10-12T18:54:04.220Z,5.67
2022-10-12T18:56:34.696Z,4.85
2022-10-12T18:59:02.773Z,3.97
2022-10-12T19:01:30.550Z,4.82
2022-10-12T19:03:59.790Z,4.95
2022-10-12T19:06:30.589Z,4.57
2022-10-12T19:08:58.846Z,4.53
2022-10-12T19:11:29.467Z,4.13
2022-10-12T19:14:04.800Z,4.95
2022-10-12T19:16:33.333Z,4.70
2022-10-12T19:19:07.898Z,5.85
2022-10-12T19:21:35.700Z,5.40
2022-10-12T19:24:04.212Z,5.05
2022-10-12T19:26:32.776Z,5.28
2022-10-12T19:29:00.532Z,5.80
2022-10-12T19:31:31.226Z,4.88
2022-10-12T19:34:00.676Z,5.63
2022-10-12T19:36:29.037Z,4.95
2022-10-12T19:38:57.533Z,5.30
2022-10-12T19:41:26.107Z,5.45
2022-10-12T19:43:53.933Z,5.43
2022-10-12T19:46:21.721Z,5.50
2022-10-12T19:48:50.638Z,6.40
2022-10-12T19:51:19.160Z,5.80
2022-10-12T19:53:47.045Z,5.85
2022-10-12T19:56:21.112Z,6.47
2022-10-12T19:58:50.119Z,6.65
2022-10-12T20:01:20.388Z,5.50
2022-10-12T20:03:50.134Z,6.53
2022-10-12T20:06:18.677Z,5.55
2022-10-12T20:08:47.381Z,6.32
2022-10-12T20:11:20.596Z,5.47
2022-10-12T20:13:51.806Z,5.80
2022-10-12T20:16:20.697Z,5.82
2022-10-12T20:18:49.570Z,6.20
2022-10-12T20:21:19.550Z,6.72
2022-10-12T20:23:48.006Z,6.85
2022-10-12T20:26:19.276Z,6.13
2022-10-12T20:28:46.862Z,5.93
2022-10-12T20:31:14.332Z,5.97
2022-10-12T20:33:41.606Z,6.60
2022-10-12T20:36:11.409Z,6.47
2022-10-12T20:38:38.910Z,6.65
2022-10-12T20:41:08.158Z,6.07
2022-10-12T20:43:41.724Z,6.28
2022-10-12T20:46:13.170Z,6.93
2022-10-12T20:51:10.598Z,7.47
2022-10-12T20:53:38.301Z,6.63
2022-10-12T20:56:06.538Z,7.00
2022-10-12T20:58:33.603Z,7.05
2022-10-12T21:01:09.608Z,6.68
2022-10-12T21:03:37.492Z,7.22
2022-10-12T21:06:07.192Z,7.18
2022-10-12T21:08:34.762Z,7.50
2022-10-12T21:11:02.389Z,7.60
2022-10-12T21:13:30.978Z,8.18
2022-10-12T21:15:58.576Z,7.90
2022-10-12T21:18:26.082Z,7.63
2022-10-12T21:21:08.866Z,8.20
2022-10-12T21:23:35.944Z,8.00
2022-10-12T21:26:14.770Z,8.23
2022-10-12T21:28:42.271Z,9.73
2022-10-12T21:31:09.791Z,8.73
2022-10-12T21:33:38.029Z,12.18
2022-10-12T21:36:10.319Z,11.32
2022-10-12T21:38:37.846Z,10.68
2022-10-12T21:41:06.233Z,10.52
2022-10-12T21:43:34.638Z,9.25
2022-10-12T21:46:07.638Z,8.50
2022-10-12T21:48:36.440Z,9.55
2022-10-12T21:51:05.119Z,9.57
2022-10-12T21:53:33.967Z,10.23
2022-10-12T21:56:07.803Z,9.30
2022-10-12T21:58:34.935Z,10.90
2022-10-12T22:01:11.005Z,9.98
2022-10-12T22:03:38.330Z,10.00
2022-10-12T22:06:06.616Z,9.73
2022-10-12T22:08:34.026Z,10.23
2022-10-12T22:11:10.328Z,10.50
2022-10-12T22:13:38.533Z,10.50
2022-10-12T22:16:09.442Z,11.75
2022-10-12T22:18:37.046Z,11.20
2022-10-12T22:21:13.319Z,10.45
2022-10-12T22:23:42.653Z,11.65
2022-10-12T22:26:13.246Z,9.82
2022-10-12T22:28:46.181Z,10.57
2022-10-12T22:31:15.940Z,11.75
2022-10-12T22:33:43.995Z,12.55
2022-10-12T22:36:13.147Z,10.90
2022-10-12T22:38:41.026Z,10.43
2022-10-12T22:41:14.428Z,11.18
2022-10-12T22:43:49.034Z,11.20
2022-10-12T22:46:17.184Z,11.40
2022-10-12T22:48:44.566Z,11.77
2022-10-12T22:51:18.222Z,10.95
2022-10-12T22:53:45.223Z,11.52
2022-10-12T22:56:17.517Z,12.27
2022-10-12T22:58:48.541Z,11.13
2022-10-12T23:01:17.407Z,10.63
2022-10-12T23:03:45.561Z,10.95
2022-10-12T23:06:15.973Z,11.23
2022-10-12T23:08:43.536Z,9.60
2022-10-12T23:11:13.339Z,9.80
2022-10-12T23:13:41.339Z,10.18
2022-10-12T23:16:15.728Z,10.45
2022-10-12T23:18:43.163Z,11.35
2022-10-12T23:21:12.560Z,10.00
2022-10-12T23:23:40.858Z,10.02
2022-10-12T23:26:11.496Z,9.50
2022-10-12T23:28:39.267Z,9.68
2022-10-12T23:31:13.268Z,9.55
2022-10-12T23:33:41.584Z,10.10
2022-10-12T23:36:12.470Z,10.63
2022-10-12T23:38:41.315Z,11.02
2022-10-12T23:41:09.003Z,10.85
2022-10-12T23:43:36.827Z,9.77
2022-10-12T23:46:05.203Z,10.45
2022-10-12T23:48:34.378Z,11.00
2022-10-12T23:51:01.289Z,9.68
2022-10-12T23:53:28.775Z,10.68
2022-10-12T23:55:56.066Z,11.48
2022-10-12T23:58:23.343Z,11.23
